TAF KCRQ
KCRQ 081734Z 0818/0918 VRB03KT P6SM SKC FM082000 25007KT P6SM SCT100 FM090200 VRB04KT P6SM SCT025 SCT040 FM090400 15005KT P6SM BKN020 FM090800 13003KT P6SM VCSH BKN015 FM091600 22009KT 3SM RA BR OVC010=
METAR KCRQ
WC KCRQ
WS KCRQ
WV KCRQ